sensor_id;sensor_type;location;lat;lon;timestamp;P1;durP1;ratioP1;P2;durP2;ratioP2
67516;SDS011;68821;59.134;37.894;2023-07-13T00:00:36;36.33;;;11.05;;
67516;SDS011;68821;59.134;37.894;2023-07-13T00:03:03;26.45;;;9.57;;
67516;SDS011;68821;59.134;37.894;2023-07-13T00:05:30;37.10;;;13.07;;
67516;SDS011;68821;59.134;37.894;2023-07-13T00:07:57;27.48;;;9.27;;
67516;SDS011;68821;59.134;37.894;2023-07-13T00:10:24;43.97;;;12.40;;
67516;SDS011;68821;59.134;37.894;2023-07-13T00:12:50;43.17;;;11.82;;
67516;SDS011;68821;59.134;37.894;2023-07-13T00:15:24;41.67;;;14.18;;
67516;SDS011;68821;59.134;37.894;2023-07-13T00:17:52;38.78;;;12.85;;
67516;SDS011;68821;59.134;37.894;2023-07-13T00:20:20;36.72;;;12.88;;
67516;SDS011;68821;59.134;37.894;2023-07-13T00:22:48;48.40;;;16.40;;
67516;SDS011;68821;59.134;37.894;2023-07-13T00:25:15;33.20;;;11.88;;
67516;SDS011;68821;59.134;37.894;2023-07-13T00:27:42;47.05;;;14.70;;
67516;SDS011;68821;59.134;37.894;2023-07-13T00:30:09;38.90;;;13.77;;
67516;SDS011;68821;59.134;37.894;2023-07-13T00:32:37;44.15;;;15.23;;
67516;SDS011;68821;59.134;37.894;2023-07-13T00:35:04;51.05;;;20.35;;
67516;SDS011;68821;59.134;37.894;2023-07-13T00:37:30;31.20;;;12.00;;
67516;SDS011;68821;59.134;37.894;2023-07-13T00:39:57;43.05;;;15.52;;
67516;SDS011;68821;59.134;37.894;2023-07-13T00:42:23;23.15;;;8.50;;
67516;SDS011;68821;59.134;37.894;2023-07-13T00:47:52;29.90;;;10.80;;
67516;SDS011;68821;59.134;37.894;2023-07-13T00:50:21;37.05;;;14.23;;
67516;SDS011;68821;59.134;37.894;2023-07-13T00:55:16;34.83;;;15.30;;
67516;SDS011;68821;59.134;37.894;2023-07-13T00:57:43;38.53;;;14.85;;
67516;SDS011;68821;59.134;37.894;2023-07-13T01:00:11;16.45;;;8.40;;
67516;SDS011;68821;59.134;37.894;2023-07-13T01:02:38;26.88;;;8.48;;
67516;SDS011;68821;59.134;37.894;2023-07-13T01:05:15;31.15;;;9.57;;
67516;SDS011;68821;59.134;37.894;2023-07-13T01:07:45;32.58;;;11.90;;
67516;SDS011;68821;59.134;37.894;2023-07-13T01:10:14;26.52;;;11.60;;
67516;SDS011;68821;59.134;37.894;2023-07-13T01:12:40;16.23;;;6.25;;
67516;SDS011;68821;59.134;37.894;2023-07-13T01:18:16;25.27;;;9.15;;
67516;SDS011;68821;59.134;37.894;2023-07-13T01:20:56;15.20;;;6.53;;
67516;SDS011;68821;59.134;37.894;2023-07-13T01:23:27;17.15;;;7.80;;
67516;SDS011;68821;59.134;37.894;2023-07-13T01:25:55;21.67;;;8.27;;
67516;SDS011;68821;59.134;37.894;2023-07-13T01:28:23;15.82;;;4.15;;
67516;SDS011;68821;59.134;37.894;2023-07-13T01:30:53;33.95;;;10.27;;
67516;SDS011;68821;59.134;37.894;2023-07-13T01:33:21;25.92;;;10.73;;
67516;SDS011;68821;59.134;37.894;2023-07-13T01:35:47;27.58;;;11.35;;
67516;SDS011;68821;59.134;37.894;2023-07-13T01:38:15;23.88;;;8.52;;
67516;SDS011;68821;59.134;37.894;2023-07-13T01:40:43;42.65;;;13.38;;
67516;SDS011;68821;59.134;37.894;2023-07-13T01:43:10;39.38;;;13.30;;
67516;SDS011;68821;59.134;37.894;2023-07-13T01:45:37;40.30;;;15.20;;
67516;SDS011;68821;59.134;37.894;2023-07-13T01:48:03;46.47;;;13.68;;
67516;SDS011;68821;59.134;37.894;2023-07-13T01:50:32;31.13;;;12.35;;
67516;SDS011;68821;59.134;37.894;2023-07-13T01:52:59;21.00;;;6.88;;
67516;SDS011;68821;59.134;37.894;2023-07-13T01:55:26;30.67;;;11.35;;
67516;SDS011;68821;59.134;37.894;2023-07-13T01:57:52;35.15;;;11.23;;
67516;SDS011;68821;59.134;37.894;2023-07-13T02:00:18;34.58;;;9.95;;
67516;SDS011;68821;59.134;37.894;2023-07-13T02:02:45;41.08;;;15.50;;
67516;SDS011;68821;59.134;37.894;2023-07-13T02:05:12;22.83;;;9.20;;
67516;SDS011;68821;59.134;37.894;2023-07-13T02:07:39;39.72;;;13.20;;
67516;SDS011;68821;59.134;37.894;2023-07-13T02:10:06;30.83;;;12.20;;
67516;SDS011;68821;59.134;37.894;2023-07-13T02:12:33;42.15;;;14.50;;
67516;SDS011;68821;59.134;37.894;2023-07-13T02:15:00;31.67;;;11.73;;
67516;SDS011;68821;59.134;37.894;2023-07-13T02:17:26;22.60;;;9.45;;
67516;SDS011;68821;59.134;37.894;2023-07-13T02:19:53;25.58;;;11.63;;
67516;SDS011;68821;59.134;37.894;2023-07-13T02:22:20;44.97;;;17.00;;
67516;SDS011;68821;59.134;37.894;2023-07-13T02:24:47;43.92;;;17.23;;
67516;SDS011;68821;59.134;37.894;2023-07-13T02:27:14;33.20;;;10.77;;
67516;SDS011;68821;59.134;37.894;2023-07-13T02:29:40;27.15;;;11.48;;
67516;SDS011;68821;59.134;37.894;2023-07-13T02:32:06;36.95;;;15.75;;
67516;SDS011;68821;59.134;37.894;2023-07-13T02:34:33;30.98;;;13.93;;
67516;SDS011;68821;59.134;37.894;2023-07-13T02:37:00;40.08;;;13.02;;
67516;SDS011;68821;59.134;37.894;2023-07-13T02:39:26;28.35;;;13.05;;
67516;SDS011;68821;59.134;37.894;2023-07-13T02:41:54;27.00;;;11.07;;
67516;SDS011;68821;59.134;37.894;2023-07-13T02:44:20;22.15;;;10.25;;
67516;SDS011;68821;59.134;37.894;2023-07-13T02:46:46;37.35;;;14.75;;
67516;SDS011;68821;59.134;37.894;2023-07-13T02:49:13;31.55;;;13.55;;
67516;SDS011;68821;59.134;37.894;2023-07-13T02:51:39;17.70;;;8.23;;
67516;SDS011;68821;59.134;37.894;2023-07-13T02:54:05;21.65;;;8.45;;
67516;SDS011;68821;59.134;37.894;2023-07-13T02:56:34;17.50;;;9.98;;
67516;SDS011;68821;59.134;37.894;2023-07-13T02:59:00;23.35;;;12.15;;
67516;SDS011;68821;59.134;37.894;2023-07-13T03:01:26;20.83;;;8.52;;
67516;SDS011;68821;59.134;37.894;2023-07-13T03:03:53;23.05;;;9.00;;
67516;SDS011;68821;59.134;37.894;2023-07-13T03:06:19;21.15;;;7.75;;
67516;SDS011;68821;59.134;37.894;2023-07-13T03:08:47;15.00;;;6.85;;
67516;SDS011;68821;59.134;37.894;2023-07-13T03:11:16;9.45;;;4.88;;
67516;SDS011;68821;59.134;37.894;2023-07-13T03:13:44;20.65;;;8.02;;
67516;SDS011;68821;59.134;37.894;2023-07-13T03:16:11;21.80;;;7.68;;
67516;SDS011;68821;59.134;37.894;2023-07-13T03:18:37;23.83;;;9.27;;
67516;SDS011;68821;59.134;37.894;2023-07-13T03:21:04;16.15;;;7.88;;
67516;SDS011;68821;59.134;37.894;2023-07-13T03:23:31;18.15;;;7.88;;
67516;SDS011;68821;59.134;37.894;2023-07-13T03:26:09;15.00;;;6.93;;
67516;SDS011;68821;59.134;37.894;2023-07-13T03:28:40;13.35;;;5.00;;
67516;SDS011;68821;59.134;37.894;2023-07-13T03:31:11;8.40;;;4.13;;
67516;SDS011;68821;59.134;37.894;2023-07-13T03:33:39;10.73;;;4.20;;
67516;SDS011;68821;59.134;37.894;2023-07-13T03:36:07;7.72;;;3.50;;
67516;SDS011;68821;59.134;37.894;2023-07-13T03:38:35;9.52;;;4.32;;
67516;SDS011;68821;59.134;37.894;2023-07-13T03:41:01;7.90;;;3.60;;
67516;SDS011;68821;59.134;37.894;2023-07-13T03:43:28;5.63;;;2.10;;
67516;SDS011;68821;59.134;37.894;2023-07-13T03:45:54;6.53;;;2.88;;
67516;SDS011;68821;59.134;37.894;2023-07-13T03:48:21;9.65;;;5.13;;
67516;SDS011;68821;59.134;37.894;2023-07-13T03:50:48;11.82;;;3.08;;
67516;SDS011;68821;59.134;37.894;2023-07-13T03:55:41;7.28;;;2.50;;
67516;SDS011;68821;59.134;37.894;2023-07-13T03:58:24;7.63;;;2.15;;
67516;SDS011;68821;59.134;37.894;2023-07-13T04:00:56;5.97;;;2.83;;
67516;SDS011;68821;59.134;37.894;2023-07-13T04:03:24;8.98;;;3.22;;
67516;SDS011;68821;59.134;37.894;2023-07-13T04:05:50;9.70;;;4.18;;
67516;SDS011;68821;59.134;37.894;2023-07-13T04:08:17;13.98;;;4.68;;
67516;SDS011;68821;59.134;37.894;2023-07-13T04:10:43;12.18;;;4.47;;
67516;SDS011;68821;59.134;37.894;2023-07-13T04:13:10;11.50;;;4.20;;
67516;SDS011;68821;59.134;37.894;2023-07-13T04:15:36;4.43;;;2.42;;
67516;SDS011;68821;59.134;37.894;2023-07-13T04:18:04;9.57;;;3.20;;
67516;SDS011;68821;59.134;37.894;2023-07-13T04:20:30;8.70;;;3.05;;
67516;SDS011;68821;59.134;37.894;2023-07-13T04:22:58;11.25;;;4.07;;
67516;SDS011;68821;59.134;37.894;2023-07-13T04:25:24;6.05;;;3.05;;
67516;SDS011;68821;59.134;37.894;2023-07-13T04:27:51;8.82;;;2.53;;
67516;SDS011;68821;59.134;37.894;2023-07-13T04:30:18;15.25;;;5.82;;
67516;SDS011;68821;59.134;37.894;2023-07-13T04:32:45;14.30;;;5.53;;
67516;SDS011;68821;59.134;37.894;2023-07-13T04:35:12;11.80;;;4.28;;
67516;SDS011;68821;59.134;37.894;2023-07-13T04:37:40;22.55;;;9.05;;
67516;SDS011;68821;59.134;37.894;2023-07-13T04:40:06;9.13;;;3.42;;
67516;SDS011;68821;59.134;37.894;2023-07-13T04:42:37;20.60;;;7.13;;
67516;SDS011;68821;59.134;37.894;2023-07-13T04:47:32;14.02;;;4.80;;
67516;SDS011;68821;59.134;37.894;2023-07-13T04:49:58;14.82;;;5.60;;
67516;SDS011;68821;59.134;37.894;2023-07-13T04:52:24;11.90;;;3.53;;
67516;SDS011;68821;59.134;37.894;2023-07-13T04:54:51;19.50;;;7.00;;
67516;SDS011;68821;59.134;37.894;2023-07-13T04:57:17;23.50;;;12.38;;
67516;SDS011;68821;59.134;37.894;2023-07-13T04:59:43;24.02;;;8.93;;
67516;SDS011;68821;59.134;37.894;2023-07-13T05:02:10;21.83;;;11.00;;
67516;SDS011;68821;59.134;37.894;2023-07-13T05:04:36;20.17;;;8.70;;
67516;SDS011;68821;59.134;37.894;2023-07-13T05:07:02;25.08;;;9.20;;
67516;SDS011;68821;59.134;37.894;2023-07-13T05:09:29;26.83;;;13.60;;
67516;SDS011;68821;59.134;37.894;2023-07-13T05:11:55;26.13;;;13.75;;
67516;SDS011;68821;59.134;37.894;2023-07-13T05:14:21;34.50;;;16.08;;
67516;SDS011;68821;59.134;37.894;2023-07-13T05:16:47;32.00;;;15.52;;
67516;SDS011;68821;59.134;37.894;2023-07-13T05:19:14;24.33;;;10.43;;
67516;SDS011;68821;59.134;37.894;2023-07-13T05:21:40;26.17;;;11.70;;
67516;SDS011;68821;59.134;37.894;2023-07-13T05:24:06;35.20;;;16.15;;
67516;SDS011;68821;59.134;37.894;2023-07-13T05:26:33;32.85;;;13.65;;
67516;SDS011;68821;59.134;37.894;2023-07-13T05:28:59;26.50;;;13.32;;
67516;SDS011;68821;59.134;37.894;2023-07-13T05:31:25;35.33;;;15.73;;
67516;SDS011;68821;59.134;37.894;2023-07-13T05:33:52;18.88;;;8.38;;
67516;SDS011;68821;59.134;37.894;2023-07-13T05:36:18;26.90;;;12.75;;
67516;SDS011;68821;59.134;37.894;2023-07-13T05:38:44;18.55;;;8.18;;
67516;SDS011;68821;59.134;37.894;2023-07-13T05:41:10;20.75;;;7.93;;
67516;SDS011;68821;59.134;37.894;2023-07-13T05:43:37;17.48;;;9.63;;
67516;SDS011;68821;59.134;37.894;2023-07-13T05:46:03;21.90;;;10.00;;
67516;SDS011;68821;59.134;37.894;2023-07-13T05:48:29;28.73;;;11.20;;
67516;SDS011;68821;59.134;37.894;2023-07-13T05:50:55;12.45;;;7.68;;
67516;SDS011;68821;59.134;37.894;2023-07-13T05:53:21;19.80;;;9.15;;
67516;SDS011;68821;59.134;37.894;2023-07-13T05:55:48;21.05;;;7.15;;
67516;SDS011;68821;59.134;37.894;2023-07-13T05:58:19;21.98;;;9.45;;
67516;SDS011;68821;59.134;37.894;2023-07-13T06:00:46;20.40;;;7.68;;
67516;SDS011;68821;59.134;37.894;2023-07-13T06:03:15;12.18;;;4.65;;
67516;SDS011;68821;59.134;37.894;2023-07-13T06:05:42;11.73;;;4.22;;
67516;SDS011;68821;59.134;37.894;2023-07-13T06:08:08;9.27;;;3.88;;
67516;SDS011;68821;59.134;37.894;2023-07-13T06:10:35;10.60;;;4.07;;
67516;SDS011;68821;59.134;37.894;2023-07-13T06:13:02;13.80;;;4.47;;
67516;SDS011;68821;59.134;37.894;2023-07-13T06:15:28;13.40;;;4.78;;
67516;SDS011;68821;59.134;37.894;2023-07-13T06:17:55;15.50;;;5.13;;
67516;SDS011;68821;59.134;37.894;2023-07-13T06:20:21;13.40;;;6.25;;
67516;SDS011;68821;59.134;37.894;2023-07-13T06:22:47;9.82;;;5.15;;
67516;SDS011;68821;59.134;37.894;2023-07-13T06:25:14;10.48;;;5.00;;
67516;SDS011;68821;59.134;37.894;2023-07-13T06:27:40;8.65;;;3.72;;
67516;SDS011;68821;59.134;37.894;2023-07-13T06:30:06;8.15;;;3.25;;
67516;SDS011;68821;59.134;37.894;2023-07-13T06:32:33;7.93;;;3.72;;
67516;SDS011;68821;59.134;37.894;2023-07-13T06:34:59;12.02;;;4.10;;
67516;SDS011;68821;59.134;37.894;2023-07-13T06:37:26;10.05;;;3.70;;
67516;SDS011;68821;59.134;37.894;2023-07-13T06:39:52;10.35;;;3.63;;
67516;SDS011;68821;59.134;37.894;2023-07-13T06:42:18;9.23;;;3.47;;
67516;SDS011;68821;59.134;37.894;2023-07-13T06:44:44;6.07;;;3.08;;
67516;SDS011;68821;59.134;37.894;2023-07-13T06:47:11;7.72;;;3.42;;
67516;SDS011;68821;59.134;37.894;2023-07-13T06:49:37;6.68;;;2.70;;
67516;SDS011;68821;59.134;37.894;2023-07-13T06:52:03;8.20;;;2.35;;
67516;SDS011;68821;59.134;37.894;2023-07-13T06:54:30;5.60;;;2.92;;
67516;SDS011;68821;59.134;37.894;2023-07-13T06:56:56;5.43;;;2.13;;
67516;SDS011;68821;59.134;37.894;2023-07-13T06:59:22;11.20;;;3.90;;
67516;SDS011;68821;59.134;37.894;2023-07-13T07:01:49;13.65;;;6.85;;
67516;SDS011;68821;59.134;37.894;2023-07-13T07:04:15;10.30;;;4.32;;
67516;SDS011;68821;59.134;37.894;2023-07-13T07:06:43;12.43;;;3.90;;
67516;SDS011;68821;59.134;37.894;2023-07-13T07:09:11;11.38;;;3.83;;
67516;SDS011;68821;59.134;37.894;2023-07-13T07:11:37;12.02;;;4.30;;
67516;SDS011;68821;59.134;37.894;2023-07-13T07:14:03;7.53;;;3.42;;
67516;SDS011;68821;59.134;37.894;2023-07-13T07:16:30;10.05;;;4.97;;
67516;SDS011;68821;59.134;37.894;2023-07-13T07:18:56;13.23;;;4.85;;
67516;SDS011;68821;59.134;37.894;2023-07-13T07:21:22;8.88;;;4.22;;
67516;SDS011;68821;59.134;37.894;2023-07-13T07:23:49;5.97;;;3.17;;
67516;SDS011;68821;59.134;37.894;2023-07-13T07:26:15;8.48;;;3.47;;
67516;SDS011;68821;59.134;37.894;2023-07-13T07:28:41;7.88;;;3.35;;
67516;SDS011;68821;59.134;37.894;2023-07-13T07:31:07;8.30;;;3.20;;
67516;SDS011;68821;59.134;37.894;2023-07-13T07:33:34;14.85;;;3.00;;
67516;SDS011;68821;59.134;37.894;2023-07-13T07:36:01;6.63;;;3.00;;
67516;SDS011;68821;59.134;37.894;2023-07-13T07:38:29;11.05;;;3.40;;
67516;SDS011;68821;59.134;37.894;2023-07-13T07:40:55;14.07;;;5.60;;
67516;SDS011;68821;59.134;37.894;2023-07-13T07:43:23;20.60;;;7.03;;
67516;SDS011;68821;59.134;37.894;2023-07-13T07:45:49;12.40;;;5.28;;
67516;SDS011;68821;59.134;37.894;2023-07-13T07:48:15;14.00;;;3.25;;
67516;SDS011;68821;59.134;37.894;2023-07-13T07:50:42;11.75;;;4.78;;
67516;SDS011;68821;59.134;37.894;2023-07-13T07:53:08;4.40;;;2.28;;
67516;SDS011;68821;59.134;37.894;2023-07-13T07:55:36;13.88;;;4.05;;
67516;SDS011;68821;59.134;37.894;2023-07-13T07:58:02;9.63;;;3.92;;
67516;SDS011;68821;59.134;37.894;2023-07-13T08:00:29;8.98;;;4.13;;
67516;SDS011;68821;59.134;37.894;2023-07-13T08:02:57;6.30;;;2.63;;
67516;SDS011;68821;59.134;37.894;2023-07-13T08:05:24;9.13;;;3.83;;
67516;SDS011;68821;59.134;37.894;2023-07-13T08:07:51;9.20;;;3.42;;
67516;SDS011;68821;59.134;37.894;2023-07-13T08:10:18;11.07;;;3.78;;
67516;SDS011;68821;59.134;37.894;2023-07-13T08:12:44;12.70;;;5.40;;
67516;SDS011;68821;59.134;37.894;2023-07-13T08:15:12;19.15;;;5.88;;
67516;SDS011;68821;59.134;37.894;2023-07-13T08:17:40;14.43;;;5.72;;
67516;SDS011;68821;59.134;37.894;2023-07-13T08:20:06;18.73;;;8.05;;
67516;SDS011;68821;59.134;37.894;2023-07-13T08:22:34;35.83;;;16.48;;
67516;SDS011;68821;59.134;37.894;2023-07-13T08:25:01;20.33;;;8.07;;
67516;SDS011;68821;59.134;37.894;2023-07-13T08:27:28;20.85;;;8.50;;
67516;SDS011;68821;59.134;37.894;2023-07-13T08:29:54;12.93;;;5.85;;
67516;SDS011;68821;59.134;37.894;2023-07-13T08:32:21;14.40;;;6.28;;
67516;SDS011;68821;59.134;37.894;2023-07-13T08:34:48;27.88;;;12.63;;
67516;SDS011;68821;59.134;37.894;2023-07-13T08:37:15;12.95;;;6.75;;
67516;SDS011;68821;59.134;37.894;2023-07-13T08:45:00;29.55;;;12.07;;
67516;SDS011;68821;59.134;37.894;2023-07-13T08:47:35;44.42;;;18.50;;
67516;SDS011;68821;59.134;37.894;2023-07-13T08:50:05;31.70;;;15.45;;
67516;SDS011;68821;59.134;37.894;2023-07-13T08:52:39;23.83;;;9.95;;
67516;SDS011;68821;59.134;37.894;2023-07-13T08:55:18;25.02;;;12.05;;
67516;SDS011;68821;59.134;37.894;2023-07-13T08:57:53;15.60;;;6.53;;
67516;SDS011;68821;59.134;37.894;2023-07-13T09:00:33;14.88;;;5.70;;
67516;SDS011;68821;59.134;37.894;2023-07-13T09:03:07;18.08;;;6.75;;
67516;SDS011;68821;59.134;37.894;2023-07-13T09:05:47;16.45;;;8.13;;
67516;SDS011;68821;59.134;37.894;2023-07-13T09:11:23;21.17;;;12.65;;
67516;SDS011;68821;59.134;37.894;2023-07-13T09:16:19;18.15;;;7.55;;
67516;SDS011;68821;59.134;37.894;2023-07-13T09:18:47;13.45;;;6.80;;
67516;SDS011;68821;59.134;37.894;2023-07-13T09:23:59;14.35;;;5.20;;
67516;SDS011;68821;59.134;37.894;2023-07-13T09:26:30;17.42;;;5.38;;
67516;SDS011;68821;59.134;37.894;2023-07-13T09:29:03;11.73;;;5.15;;
67516;SDS011;68821;59.134;37.894;2023-07-13T09:31:44;11.23;;;4.88;;
67516;SDS011;68821;59.134;37.894;2023-07-13T09:34:15;18.83;;;6.82;;
67516;SDS011;68821;59.134;37.894;2023-07-13T09:36:42;13.63;;;5.22;;
67516;SDS011;68821;59.134;37.894;2023-07-13T09:39:13;10.13;;;4.35;;
67516;SDS011;68821;59.134;37.894;2023-07-13T09:41:49;11.77;;;4.13;;
67516;SDS011;68821;59.134;37.894;2023-07-13T09:44:35;8.10;;;3.33;;
67516;SDS011;68821;59.134;37.894;2023-07-13T09:47:16;12.60;;;4.68;;
67516;SDS011;68821;59.134;37.894;2023-07-13T09:49:44;15.02;;;6.13;;
67516;SDS011;68821;59.134;37.894;2023-07-13T09:52:12;32.67;;;16.17;;
67516;SDS011;68821;59.134;37.894;2023-07-13T09:54:43;26.25;;;13.70;;
67516;SDS011;68821;59.134;37.894;2023-07-13T09:57:12;19.83;;;7.85;;
67516;SDS011;68821;59.134;37.894;2023-07-13T09:59:49;20.83;;;10.18;;
67516;SDS011;68821;59.134;37.894;2023-07-13T10:02:28;21.98;;;9.32;;
67516;SDS011;68821;59.134;37.894;2023-07-13T10:05:03;20.35;;;7.28;;
67516;SDS011;68821;59.134;37.894;2023-07-13T10:07:40;21.95;;;11.23;;
67516;SDS011;68821;59.134;37.894;2023-07-13T10:10:20;32.97;;;15.00;;
67516;SDS011;68821;59.134;37.894;2023-07-13T10:12:48;26.55;;;14.90;;
67516;SDS011;68821;59.134;37.894;2023-07-13T10:15:21;49.97;;;24.58;;
67516;SDS011;68821;59.134;37.894;2023-07-13T10:17:49;42.17;;;19.85;;
67516;SDS011;68821;59.134;37.894;2023-07-13T10:20:17;38.55;;;21.80;;
67516;SDS011;68821;59.134;37.894;2023-07-13T10:22:54;40.38;;;20.55;;
67516;SDS011;68821;59.134;37.894;2023-07-13T10:25:32;30.10;;;18.90;;
67516;SDS011;68821;59.134;37.894;2023-07-13T10:28:20;38.40;;;16.73;;
67516;SDS011;68821;59.134;37.894;2023-07-13T10:31:03;39.83;;;20.83;;
67516;SDS011;68821;59.134;37.894;2023-07-13T10:33:37;44.08;;;21.20;;
67516;SDS011;68821;59.134;37.894;2023-07-13T10:36:10;34.70;;;15.48;;
67516;SDS011;68821;59.134;37.894;2023-07-13T10:41:20;39.25;;;19.90;;
67516;SDS011;68821;59.134;37.894;2023-07-13T10:43:50;35.17;;;18.55;;
67516;SDS011;68821;59.134;37.894;2023-07-13T10:46:19;43.03;;;23.00;;
67516;SDS011;68821;59.134;37.894;2023-07-13T10:48:49;64.32;;;28.02;;
67516;SDS011;68821;59.134;37.894;2023-07-13T10:51:20;52.10;;;22.30;;
67516;SDS011;68821;59.134;37.894;2023-07-13T10:53:47;44.25;;;17.25;;
67516;SDS011;68821;59.134;37.894;2023-07-13T10:56:34;43.67;;;21.15;;
67516;SDS011;68821;59.134;37.894;2023-07-13T11:01:48;54.47;;;24.23;;
67516;SDS011;68821;59.134;37.894;2023-07-13T11:04:17;46.25;;;23.05;;
67516;SDS011;68821;59.134;37.894;2023-07-13T11:06:47;47.75;;;17.85;;
67516;SDS011;68821;59.134;37.894;2023-07-13T11:09:29;49.90;;;21.70;;
67516;SDS011;68821;59.134;37.894;2023-07-13T11:11:59;39.45;;;17.65;;
67516;SDS011;68821;59.134;37.894;2023-07-13T11:14:31;42.28;;;19.88;;
67516;SDS011;68821;59.134;37.894;2023-07-13T11:20:41;35.80;;;14.63;;
67516;SDS011;68821;59.134;37.894;2023-07-13T11:27:49;35.85;;;16.42;;
67516;SDS011;68821;59.134;37.894;2023-07-13T11:30:21;32.13;;;16.13;;
67516;SDS011;68821;59.134;37.894;2023-07-13T11:33:15;43.15;;;18.95;;
67516;SDS011;68821;59.134;37.894;2023-07-13T11:38:33;39.22;;;22.83;;
67516;SDS011;68821;59.134;37.894;2023-07-13T11:41:21;37.45;;;15.88;;
67516;SDS011;68821;59.134;37.894;2023-07-13T11:43:52;35.28;;;14.38;;
67516;SDS011;68821;59.134;37.894;2023-07-13T11:46:21;29.80;;;13.15;;
67516;SDS011;68821;59.134;37.894;2023-07-13T11:48:52;21.67;;;7.85;;
67516;SDS011;68821;59.134;37.894;2023-07-13T11:51:24;23.10;;;9.48;;
67516;SDS011;68821;59.134;37.894;2023-07-13T11:53:53;35.50;;;12.07;;
67516;SDS011;68821;59.134;37.894;2023-07-13T11:56:22;35.10;;;12.63;;
67516;SDS011;68821;59.134;37.894;2023-07-13T11:58:51;29.92;;;12.07;;
67516;SDS011;68821;59.134;37.894;2023-07-13T12:01:22;28.42;;;11.63;;
67516;SDS011;68821;59.134;37.894;2023-07-13T12:03:58;23.13;;;8.70;;
67516;SDS011;68821;59.134;37.894;2023-07-13T12:06:28;51.70;;;22.13;;
67516;SDS011;68821;59.134;37.894;2023-07-13T12:08:59;43.13;;;15.00;;
67516;SDS011;68821;59.134;37.894;2023-07-13T12:11:29;36.08;;;13.48;;
67516;SDS011;68821;59.134;37.894;2023-07-13T12:13:56;44.00;;;17.17;;
67516;SDS011;68821;59.134;37.894;2023-07-13T12:16:28;48.42;;;16.50;;
67516;SDS011;68821;59.134;37.894;2023-07-13T12:19:01;62.22;;;21.05;;
67516;SDS011;68821;59.134;37.894;2023-07-13T12:21:33;63.47;;;25.67;;
67516;SDS011;68821;59.134;37.894;2023-07-13T12:24:03;72.20;;;23.65;;
67516;SDS011;68821;59.134;37.894;2023-07-13T12:26:31;39.45;;;14.75;;
67516;SDS011;68821;59.134;37.894;2023-07-13T12:29:01;47.17;;;19.33;;
67516;SDS011;68821;59.134;37.894;2023-07-13T12:31:36;55.30;;;19.13;;
67516;SDS011;68821;59.134;37.894;2023-07-13T12:34:08;41.92;;;13.15;;
67516;SDS011;68821;59.134;37.894;2023-07-13T12:36:36;33.22;;;12.02;;
67516;SDS011;68821;59.134;37.894;2023-07-13T12:39:51;30.77;;;10.73;;
67516;SDS011;68821;59.134;37.894;2023-07-13T12:42:37;31.35;;;13.45;;
67516;SDS011;68821;59.134;37.894;2023-07-13T12:45:13;28.35;;;11.40;;
67516;SDS011;68821;59.134;37.894;2023-07-13T12:47:47;37.15;;;11.77;;
67516;SDS011;68821;59.134;37.894;2023-07-13T12:50:17;46.00;;;15.27;;
67516;SDS011;68821;59.134;37.894;2023-07-13T12:52:49;35.63;;;12.30;;
67516;SDS011;68821;59.134;37.894;2023-07-13T12:55:18;38.95;;;13.35;;
67516;SDS011;68821;59.134;37.894;2023-07-13T12:57:56;31.75;;;13.18;;
67516;SDS011;68821;59.134;37.894;2023-07-13T13:00:27;50.63;;;18.33;;
67516;SDS011;68821;59.134;37.894;2023-07-13T13:03:02;37.38;;;16.67;;
67516;SDS011;68821;59.134;37.894;2023-07-13T13:05:31;56.35;;;21.35;;
67516;SDS011;68821;59.134;37.894;2023-07-13T13:07:59;62.00;;;19.58;;
67516;SDS011;68821;59.134;37.894;2023-07-13T13:10:26;52.40;;;15.25;;
67516;SDS011;68821;59.134;37.894;2023-07-13T13:12:52;53.78;;;14.57;;
67516;SDS011;68821;59.134;37.894;2023-07-13T13:15:18;31.60;;;10.38;;
67516;SDS011;68821;59.134;37.894;2023-07-13T13:17:48;18.00;;;7.40;;
67516;SDS011;68821;59.134;37.894;2023-07-13T13:20:15;17.85;;;6.35;;
67516;SDS011;68821;59.134;37.894;2023-07-13T13:22:46;17.65;;;6.40;;
67516;SDS011;68821;59.134;37.894;2023-07-13T13:25:15;18.83;;;6.50;;
67516;SDS011;68821;59.134;37.894;2023-07-13T13:27:42;16.10;;;6.30;;
67516;SDS011;68821;59.134;37.894;2023-07-13T13:30:10;40.70;;;13.13;;
67516;SDS011;68821;59.134;37.894;2023-07-13T13:32:41;47.15;;;16.27;;
67516;SDS011;68821;59.134;37.894;2023-07-13T13:35:13;78.53;;;27.30;;
67516;SDS011;68821;59.134;37.894;2023-07-13T13:37:41;68.53;;;22.67;;
67516;SDS011;68821;59.134;37.894;2023-07-13T13:40:14;59.33;;;20.13;;
67516;SDS011;68821;59.134;37.894;2023-07-13T13:42:43;60.67;;;17.58;;
67516;SDS011;68821;59.134;37.894;2023-07-13T13:45:09;50.08;;;16.60;;
67516;SDS011;68821;59.134;37.894;2023-07-13T13:47:38;76.30;;;28.25;;
67516;SDS011;68821;59.134;37.894;2023-07-13T13:50:21;69.65;;;21.13;;
67516;SDS011;68821;59.134;37.894;2023-07-13T13:52:48;60.42;;;18.58;;
67516;SDS011;68821;59.134;37.894;2023-07-13T13:55:14;53.58;;;18.27;;
67516;SDS011;68821;59.134;37.894;2023-07-13T13:57:45;49.00;;;15.32;;
67516;SDS011;68821;59.134;37.894;2023-07-13T14:00:12;71.55;;;20.33;;
67516;SDS011;68821;59.134;37.894;2023-07-13T14:02:47;63.90;;;19.98;;
67516;SDS011;68821;59.134;37.894;2023-07-13T14:05:17;76.93;;;21.38;;
67516;SDS011;68821;59.134;37.894;2023-07-13T14:07:47;71.93;;;19.88;;
67516;SDS011;68821;59.134;37.894;2023-07-13T14:10:17;75.22;;;29.08;;
67516;SDS011;68821;59.134;37.894;2023-07-13T14:12:45;58.25;;;18.52;;
67516;SDS011;68821;59.134;37.894;2023-07-13T14:15:16;55.85;;;17.15;;
67516;SDS011;68821;59.134;37.894;2023-07-13T14:17:46;45.92;;;16.13;;
67516;SDS011;68821;59.134;37.894;2023-07-13T14:20:15;41.13;;;13.57;;
67516;SDS011;68821;59.134;37.894;2023-07-13T14:22:45;45.42;;;12.77;;
67516;SDS011;68821;59.134;37.894;2023-07-13T14:25:14;30.80;;;11.07;;
67516;SDS011;68821;59.134;37.894;2023-07-13T14:27:42;35.45;;;12.50;;
67516;SDS011;68821;59.134;37.894;2023-07-13T14:30:17;22.23;;;7.82;;
67516;SDS011;68821;59.134;37.894;2023-07-13T14:32:45;37.42;;;13.68;;
67516;SDS011;68821;59.134;37.894;2023-07-13T14:35:13;14.50;;;7.95;;
67516;SDS011;68821;59.134;37.894;2023-07-13T14:37:41;14.30;;;6.18;;
67516;SDS011;68821;59.134;37.894;2023-07-13T14:40:12;19.13;;;7.35;;
67516;SDS011;68821;59.134;37.894;2023-07-13T14:42:40;25.58;;;7.68;;
67516;SDS011;68821;59.134;37.894;2023-07-13T14:45:11;16.60;;;5.55;;
67516;SDS011;68821;59.134;37.894;2023-07-13T14:47:39;28.90;;;10.90;;
67516;SDS011;68821;59.134;37.894;2023-07-13T14:50:07;29.38;;;10.95;;
67516;SDS011;68821;59.134;37.894;2023-07-13T14:52:50;15.30;;;5.05;;
67516;SDS011;68821;59.134;37.894;2023-07-13T14:55:17;8.88;;;3.38;;
67516;SDS011;68821;59.134;37.894;2023-07-13T14:57:45;20.25;;;6.15;;
67516;SDS011;68821;59.134;37.894;2023-07-13T15:00:15;29.90;;;8.10;;
67516;SDS011;68821;59.134;37.894;2023-07-13T15:02:54;21.42;;;6.20;;
67516;SDS011;68821;59.134;37.894;2023-07-13T15:05:24;9.13;;;3.38;;
67516;SDS011;68821;59.134;37.894;2023-07-13T15:07:52;11.20;;;4.13;;
67516;SDS011;68821;59.134;37.894;2023-07-13T15:10:20;25.02;;;7.70;;